aviador You're here:

KFHR Decoded Metar

FRIDAY HARBOR in WA, USA
Report Time2018-02-21 20:53:00
UTC Time2018-02-21 21:17:50
Flight Rules vfr VFR
Wind230° at 05 kt
W.Decomp.*RWY 16: 2.9 kt HW 4.0 kt RCW
W.Rank230° ranks 5
Current wind is below 230° avg. (6.6)
Visibility9999 m
Phenomena:N/A
Clouds:Few 027 Hf
Broken 048 Hf
Overcast 060 Hf
Expected CloudBase > 3,600 ft AGL from Temp-Dew spread
Ceiling4,800 ft
Temp02°C (ISA -13)
Dew Point-7°C (52% RH)
AAT-2.6°C
QNH1025 hPa
Density Alt-1,808 ft
Elevation105 ft
Report Wrong Elevation
Raw Report
KFHR 212053Z AUTO 23005KT 10SM FEW027 BKN048 OVC060 02/M07 A3028
RMK AO2 SNB04E30 SLP256 P0000 60000 T00171072 58012=

Extra information for KFHR:More info

Metar Taf Metar & Taf Last 4 Metars F.Rules Stats Wind Profile Meteogram Temp Stats Airport Information Weather charts Add Link Nearby VenuesMetar ALERT Operation Metar Decoded Social comments

AIRNAV info for KFHR
Kenmore Air